Pagrindinis puslapis
METAR-TAF:

METAR-TAF

Oro uostai :

Salala, Omanas

platuma: 17-02N, ilguma: 054-05E, Aukštis: 20 m

Dabartinis oras

Ataskaita buvo paskelbta 1 valandą ir 20 minutes, ne 04:50 UTC
Vėjas 3 kt iš Vakarų/Pietvakarių, svyruoja nuo Pietų ir Vakarų/Šiaurės Vakarų
Temperatūra 32°C
Drėgmė 71%
Slėgis 1006 hPa
Matomumas 10 km arba daugiau
Mažai debesys ne aukštis 2500 ft

METAR: OOSA 240450Z 24003KT 190V300 9999 FEW025 32/26 Q1006 NOSIG

Laikas: 10:10 (06:10 UTC)

Prognozė

Ataskaita buvo paskelbta 30 minutes, ne 05:40 UTC
Prognozė galioja nuo 24 metu 06 UTC su 25 metu 12 UTC
Vėjas 10 kt iš Pietų
Matomumas 10 km arba daugiau
Mažai debesys ne aukštis 2500 ft
Tapsmas
nuo 24 metu 13 UTC su 24 metu 15 UTC
Vėjas 3 kt nuo kintamojo kryptimis
Tapsmas
nuo 25 metu 07 UTC su 25 metu 09 UTC
Vėjas 10 kt iš Pietų

TAF: OOSA 240540Z 2406/2512 19010KT 9999 FEW025 BECMG 2413/2415 VRB03KT BECMG 2507/2509 19010KT

Orai ataskaitas ir orų prognozės (METAR, TAF).

turimą stotys yra geltonos ir raudonos taškus žemėlapyje.

Perkelti pele per norėdami pamatyti stoties vardą.

Tada spustelėkite, norėdami matyti oro stebėjimo ir prognozės.

Norėdami pakeisti žemėlapį: spustelėkite ant žalios mygtukų su juodo kryžiaus žemyn,; žalią mygtuką su brūkšneliu, jei norite nutolinti; arba žalių rodyklių gretimoms žemėlapius.


METAR-TAF: